createdAt,value
2018-10-11T00:01:32.913Z,60.76
2018-10-11T00:03:59.276Z,60.93
2018-10-11T00:06:25.659Z,60.71
2018-10-11T00:08:52.028Z,60.65
2018-10-11T00:11:18.396Z,60.53
2018-10-11T00:13:44.729Z,60.16
2018-10-11T00:16:11.047Z,60.26
2018-10-11T00:18:37.456Z,60.29
2018-10-11T00:21:03.798Z,60.23
2018-10-11T00:23:30.147Z,60.30
2018-10-11T00:25:56.501Z,60.41
2018-10-11T00:28:22.851Z,60.45
2018-10-11T00:30:49.329Z,60.77
2018-10-11T00:33:15.580Z,60.69
2018-10-11T00:35:41.915Z,60.94
2018-10-11T00:38:08.274Z,60.97
2018-10-11T00:40:34.622Z,60.98
2018-10-11T00:43:00.984Z,61.06
2018-10-11T00:45:27.308Z,61.06
2018-10-11T00:47:53.636Z,61.36
2018-10-11T00:50:19.984Z,61.31
2018-10-11T00:52:46.306Z,61.53
2018-10-11T00:55:12.676Z,61.58
2018-10-11T00:57:39.000Z,61.58
2018-10-11T01:00:05.346Z,61.73
2018-10-11T01:02:31.718Z,61.74
2018-10-11T01:04:58.064Z,61.84
2018-10-11T01:07:24.420Z,62.14
2018-10-11T01:09:50.792Z,62.31
2018-10-11T01:12:17.095Z,62.12
2018-10-11T01:14:43.475Z,62.08
2018-10-11T01:17:09.806Z,62.15
2018-10-11T01:19:36.124Z,62.32
2018-10-11T01:22:02.483Z,62.30
2018-10-11T01:24:28.832Z,62.56
2018-10-11T01:26:55.194Z,62.57
2018-10-11T01:29:21.515Z,62.51
2018-10-11T01:31:47.836Z,62.67
2018-10-11T01:34:14.205Z,62.61
2018-10-11T01:36:40.556Z,62.87
2018-10-11T01:39:06.926Z,62.78
2018-10-11T01:41:33.253Z,62.91
2018-10-11T01:43:59.619Z,63.11
2018-10-11T01:46:26.014Z,63.47
2018-10-11T01:48:52.336Z,63.85
2018-10-11T01:51:18.702Z,63.85
2018-10-11T01:53:45.095Z,63.78
2018-10-11T01:56:11.417Z,63.64
2018-10-11T01:58:37.776Z,63.61
2018-10-11T02:01:04.139Z,63.55
2018-10-11T02:03:30.464Z,63.97
2018-10-11T02:05:56.805Z,64.03
2018-10-11T02:08:23.252Z,64.19
2018-10-11T02:10:49.575Z,64.16
2018-10-11T02:13:15.926Z,64.09
2018-10-11T02:15:42.315Z,64.51
2018-10-11T02:18:08.641Z,64.72
2018-10-11T02:20:34.960Z,64.94
2018-10-11T02:23:01.319Z,64.84
2018-10-11T02:25:27.693Z,64.43
2018-10-11T02:27:54.037Z,64.44
2018-10-11T02:30:20.390Z,64.79
2018-10-11T02:32:46.713Z,64.97
2018-10-11T02:35:13.042Z,64.83
2018-10-11T02:37:39.385Z,64.63
2018-10-11T02:40:05.730Z,64.62
2018-10-11T02:42:32.047Z,65.12
2018-10-11T02:44:58.396Z,65.18
2018-10-11T02:47:24.716Z,65.33
2018-10-11T02:49:51.066Z,65.07
2018-10-11T02:52:17.448Z,65.29
2018-10-11T02:54:43.801Z,65.52
2018-10-11T02:57:10.152Z,65.48
2018-10-11T02:59:36.502Z,65.55
2018-10-11T03:02:02.828Z,65.38
2018-10-11T03:04:29.236Z,65.46
2018-10-11T03:06:55.556Z,65.89
2018-10-11T03:09:21.910Z,65.86
2018-10-11T03:11:48.289Z,65.65
2018-10-11T03:14:14.611Z,65.77
2018-10-11T03:16:40.956Z,65.76
2018-10-11T03:19:07.283Z,65.87
2018-10-11T03:21:33.620Z,65.91
2018-10-11T03:24:00.007Z,65.96
2018-10-11T03:26:26.362Z,65.97
2018-10-11T03:28:52.720Z,66.24
2018-10-11T03:31:19.046Z,66.10
2018-10-11T03:33:45.390Z,66.48
2018-10-11T03:36:11.762Z,66.38
2018-10-11T03:38:38.078Z,66.27
2018-10-11T03:41:04.420Z,66.35
2018-10-11T03:43:30.744Z,66.47
2018-10-11T03:45:57.090Z,66.40
2018-10-11T03:48:23.453Z,66.47
2018-10-11T03:50:49.767Z,66.67
2018-10-11T03:53:16.110Z,67.11
2018-10-11T03:55:42.499Z,67.08
2018-10-11T03:58:08.836Z,67.02
2018-10-11T04:00:35.150Z,67.07
2018-10-11T04:03:01.499Z,67.36
2018-10-11T04:05:27.815Z,67.58
2018-10-11T04:07:54.253Z,67.55
2018-10-11T04:10:20.611Z,67.94
2018-10-11T04:12:46.936Z,72.28
2018-10-11T04:15:13.264Z,74.37
2018-10-11T04:17:39.605Z,73.25
2018-10-11T04:20:05.968Z,72.71
2018-10-11T04:22:32.291Z,72.91
2018-10-11T04:24:58.630Z,73.11
2018-10-11T04:27:24.999Z,73.26
2018-10-11T04:29:51.356Z,73.74
2018-10-11T04:32:17.715Z,73.91
2018-10-11T04:34:44.043Z,74.25
2018-10-11T04:37:10.382Z,75.22
2018-10-11T04:39:36.704Z,76.60
2018-10-11T04:42:03.047Z,84.10
2018-10-11T04:44:29.416Z,86.26
2018-10-11T04:46:55.776Z,83.23
2018-10-11T04:49:28.232Z,80.30
2018-10-11T04:51:54.541Z,79.23
2018-10-11T04:54:20.885Z,78.32
2018-10-11T04:56:47.280Z,77.31
2018-10-11T04:59:13.608Z,75.81
2018-10-11T05:01:39.933Z,76.35
2018-10-11T05:04:06.291Z,76.83
2018-10-11T05:06:32.633Z,76.74
2018-10-11T05:08:58.982Z,76.79
2018-10-11T05:11:25.303Z,76.85
2018-10-11T05:13:51.658Z,76.17
2018-10-11T05:16:18.040Z,76.16
2018-10-11T05:18:44.380Z,76.46
2018-10-11T05:21:10.731Z,76.26
2018-10-11T05:23:37.131Z,74.58
2018-10-11T05:26:03.511Z,74.75
2018-10-11T05:28:29.819Z,75.13
2018-10-11T05:30:56.179Z,75.42
2018-10-11T05:33:22.528Z,75.77
2018-10-11T05:35:48.872Z,76.29
2018-10-11T05:38:15.223Z,76.28
2018-10-11T05:40:41.539Z,76.28
2018-10-11T05:43:07.927Z,77.08
2018-10-11T05:45:34.276Z,77.45
2018-10-11T05:48:00.596Z,77.61
2018-10-11T05:50:26.938Z,77.80
2018-10-11T05:52:53.264Z,76.08
2018-10-11T05:55:19.629Z,76.02
2018-10-11T05:57:45.951Z,76.75
2018-10-11T06:00:12.270Z,76.67
2018-10-11T06:02:38.620Z,76.72
2018-10-11T06:05:04.976Z,76.65
2018-10-11T06:07:31.363Z,75.59
2018-10-11T06:09:57.686Z,74.53
2018-10-11T06:12:24.016Z,75.95
2018-10-11T06:14:50.408Z,76.65
2018-10-11T06:17:16.729Z,76.65
2018-10-11T06:19:43.083Z,75.16
2018-10-11T06:22:09.510Z,74.70
2018-10-11T06:24:35.890Z,74.85
2018-10-11T06:27:02.177Z,74.90
2018-10-11T06:29:28.497Z,75.33
2018-10-11T06:31:54.828Z,74.73
2018-10-11T06:34:21.220Z,73.45
2018-10-11T06:36:47.541Z,72.88
2018-10-11T06:39:13.871Z,73.21
2018-10-11T06:41:40.413Z,72.67
2018-10-11T06:44:06.747Z,72.52
2018-10-11T06:46:33.084Z,72.10
2018-10-11T06:48:59.662Z,72.17
2018-10-11T06:51:26.045Z,71.17
2018-10-11T06:53:52.358Z,70.55
2018-10-11T06:56:18.713Z,70.11
2018-10-11T06:58:45.062Z,70.48
2018-10-11T07:01:11.446Z,69.32
2018-10-11T07:03:37.791Z,70.48
2018-10-11T07:06:04.112Z,70.56
2018-10-11T07:08:30.446Z,70.33
2018-10-11T07:10:56.764Z,69.78
2018-10-11T07:13:23.150Z,69.37
2018-10-11T07:15:49.499Z,70.05
2018-10-11T07:18:15.850Z,69.97
2018-10-11T07:20:42.240Z,66.40
2018-10-11T07:23:08.560Z,67.80
2018-10-11T07:25:34.902Z,68.72
2018-10-11T07:28:01.228Z,68.36
2018-10-11T07:30:27.558Z,69.26
2018-10-11T07:32:53.915Z,66.73
2018-10-11T07:35:20.307Z,67.04
2018-10-11T07:37:46.534Z,67.54
2018-10-11T07:40:12.901Z,65.62
2018-10-11T07:42:39.179Z,65.84
2018-10-11T07:45:05.579Z,63.99
2018-10-11T07:47:31.906Z,62.49
2018-10-11T07:49:58.211Z,61.35
2018-10-11T07:52:24.512Z,62.96
2018-10-11T07:54:50.814Z,61.40
2018-10-11T07:57:17.156Z,62.45
2018-10-11T07:59:43.457Z,63.83
2018-10-11T08:02:10.375Z,65.19
2018-10-11T08:04:36.703Z,63.58
2018-10-11T08:07:03.068Z,63.58
2018-10-11T08:09:29.342Z,62.73
2018-10-11T08:11:55.843Z,64.49
2018-10-11T08:14:21.971Z,64.16
2018-10-11T08:16:48.416Z,63.67
2018-10-11T08:19:14.980Z,65.10
2018-10-11T08:21:41.088Z,64.01
2018-10-11T08:24:07.395Z,63.76
2018-10-11T08:26:33.703Z,61.44
2018-10-11T08:29:00.055Z,60.91
2018-10-11T08:31:26.387Z,61.32
2018-10-11T08:33:52.707Z,61.99
2018-10-11T08:36:19.012Z,60.62
2018-10-11T08:38:45.344Z,60.74
2018-10-11T08:41:11.700Z,61.86
2018-10-11T08:43:38.056Z,61.11
2018-10-11T08:46:04.331Z,59.69
2018-10-11T08:48:30.645Z,57.26
2018-10-11T08:50:57.028Z,56.72
2018-10-11T08:53:23.324Z,56.90
2018-10-11T08:55:49.672Z,56.54
2018-10-11T08:58:15.920Z,56.14
2018-10-11T09:00:42.437Z,56.78
2018-10-11T09:03:08.734Z,58.22
2018-10-11T09:05:35.062Z,58.17
2018-10-11T09:08:01.425Z,60.15
2018-10-11T09:10:38.107Z,58.25
2018-10-11T09:12:54.058Z,59.82
2018-10-11T09:15:20.426Z,57.96
2018-10-11T09:17:46.727Z,58.13
2018-10-11T09:20:13.032Z,59.48
2018-10-11T09:22:39.357Z,57.00
2018-10-11T09:25:05.659Z,55.88
2018-10-11T09:27:31.969Z,55.57
2018-10-11T09:29:58.302Z,55.76
2018-10-11T09:32:24.604Z,55.77
2018-10-11T09:34:50.933Z,56.33
2018-10-11T09:37:17.241Z,55.76
2018-10-11T09:39:43.540Z,54.84
2018-10-11T09:42:09.879Z,55.16
2018-10-11T09:44:36.224Z,55.48
2018-10-11T09:47:02.551Z,57.04
2018-10-11T09:49:28.857Z,57.69
2018-10-11T09:51:55.160Z,55.80
2018-10-11T09:54:21.576Z,54.35
2018-10-11T09:56:47.831Z,53.77
2018-10-11T09:59:14.176Z,53.65
2018-10-11T10:01:40.519Z,53.76
2018-10-11T10:04:06.908Z,54.66
2018-10-11T10:06:33.242Z,53.80
2018-10-11T10:08:59.571Z,54.29
2018-10-11T10:11:25.878Z,55.66
2018-10-11T10:13:52.177Z,56.81
2018-10-11T10:16:18.520Z,56.60
2018-10-11T10:18:44.943Z,55.88
2018-10-11T10:21:11.352Z,52.83
2018-10-11T10:23:37.579Z,51.24
2018-10-11T10:26:03.889Z,50.63
2018-10-11T10:28:30.263Z,52.39
2018-10-11T10:30:56.595Z,51.43
2018-10-11T10:33:22.905Z,51.29
2018-10-11T10:35:49.221Z,51.47
2018-10-11T10:38:15.529Z,51.85
2018-10-11T10:40:42.230Z,53.64
2018-10-11T10:43:08.511Z,52.57
2018-10-11T10:45:34.838Z,52.11
2018-10-11T10:48:01.198Z,53.82
2018-10-11T10:50:27.505Z,54.15
2018-10-11T10:52:53.841Z,51.04
2018-10-11T10:55:20.152Z,50.23
2018-10-11T10:57:46.473Z,50.74
2018-10-11T11:00:12.833Z,50.71
2018-10-11T11:02:39.206Z,49.71
2018-10-11T11:05:05.520Z,49.78
2018-10-11T11:07:32.367Z,49.62
2018-10-11T11:09:58.644Z,49.94
2018-10-11T11:12:25.353Z,51.13
2018-10-11T11:14:51.681Z,51.39
2018-10-11T11:17:18.015Z,51.38
2018-10-11T11:19:44.440Z,50.91
2018-10-11T11:22:10.787Z,50.33
2018-10-11T11:24:37.176Z,50.04
2018-10-11T11:27:03.484Z,50.89
2018-10-11T11:29:29.802Z,49.57
2018-10-11T11:31:56.142Z,49.25
2018-10-11T11:34:22.480Z,48.69
2018-10-11T11:36:48.798Z,48.81
2018-10-11T11:39:15.149Z,48.35
2018-10-11T11:41:41.475Z,47.43
2018-10-11T11:44:07.891Z,46.52
2018-10-11T11:46:34.177Z,43.53
2018-10-11T11:49:00.492Z,43.75
2018-10-11T11:51:26.855Z,44.79
2018-10-11T11:53:53.225Z,46.23
2018-10-11T11:56:19.562Z,44.80
2018-10-11T11:58:45.898Z,44.21
2018-10-11T12:01:12.223Z,44.97
2018-10-11T12:03:38.551Z,44.55
2018-10-11T12:06:04.875Z,45.12
2018-10-11T12:08:31.269Z,45.67
2018-10-11T12:10:57.698Z,45.98
2018-10-11T12:13:23.893Z,45.95
2018-10-11T12:15:50.207Z,44.38
2018-10-11T12:18:16.713Z,45.80
2018-10-11T12:20:43.067Z,48.18
2018-10-11T12:23:09.382Z,49.12
2018-10-11T12:25:35.715Z,50.23
2018-10-11T12:28:02.075Z,49.46
2018-10-11T12:30:28.385Z,47.64
2018-10-11T12:32:54.750Z,45.45
2018-10-11T12:35:21.078Z,45.00
2018-10-11T12:37:47.416Z,47.21
2018-10-11T12:40:13.725Z,48.59
2018-10-11T12:42:40.210Z,49.63
2018-10-11T12:45:06.802Z,49.61
2018-10-11T12:47:33.153Z,49.71
2018-10-11T12:49:59.515Z,49.74
2018-10-11T12:52:25.797Z,50.20
2018-10-11T12:54:52.183Z,50.00
2018-10-11T12:57:20.368Z,50.65
2018-10-11T12:59:44.824Z,51.28
2018-10-11T13:02:11.185Z,51.50
2018-10-11T13:04:37.509Z,51.17
2018-10-11T13:07:03.829Z,51.75
2018-10-11T13:09:30.256Z,51.87
2018-10-11T13:11:56.507Z,50.61
2018-10-11T13:14:22.842Z,50.23
2018-10-11T13:16:49.359Z,50.60
2018-10-11T13:19:15.662Z,51.17
2018-10-11T13:21:42.013Z,51.60
2018-10-11T13:24:08.352Z,51.32
2018-10-11T13:26:34.686Z,48.98
2018-10-11T13:29:01.045Z,49.27
2018-10-11T13:31:27.973Z,50.79
2018-10-11T13:33:54.345Z,51.74
2018-10-11T13:36:20.576Z,52.39
2018-10-11T13:38:46.966Z,52.63
2018-10-11T13:43:40.050Z,53.01
2018-10-11T13:46:06.378Z,52.99
2018-10-11T13:48:32.685Z,52.87
2018-10-11T13:50:59.037Z,53.02
2018-10-11T13:53:25.342Z,53.11
2018-10-11T13:55:54.893Z,53.23
2018-10-11T13:58:17.971Z,53.70
2018-10-11T14:00:44.298Z,54.26
2018-10-11T14:03:10.646Z,54.32
2018-10-11T14:05:36.964Z,55.12
2018-10-11T14:08:03.297Z,53.81
2018-10-11T14:10:29.714Z,53.03
2018-10-11T14:13:11.067Z,53.73
2018-10-11T14:15:30.405Z,53.56
2018-10-11T14:17:58.680Z,53.25
2018-10-11T14:20:23.044Z,53.49
2018-10-11T14:22:49.643Z,53.57
2018-10-11T14:25:15.954Z,53.53
2018-10-11T14:27:42.319Z,53.72
2018-10-11T14:30:08.654Z,54.44
2018-10-11T14:32:34.974Z,55.86
2018-10-11T14:35:01.372Z,54.18
2018-10-11T14:37:27.677Z,53.19
2018-10-11T14:39:54.017Z,52.67
2018-10-11T14:42:20.346Z,52.55
2018-10-11T14:44:46.679Z,52.48
2018-10-11T14:47:13.011Z,52.44
2018-10-11T14:49:39.351Z,52.50
2018-10-11T14:52:05.675Z,52.38
2018-10-11T14:54:31.997Z,52.61
2018-10-11T14:56:58.353Z,52.76
2018-10-11T14:59:24.673Z,52.77
2018-10-11T15:01:50.974Z,52.65
2018-10-11T15:04:17.313Z,52.60
2018-10-11T15:06:43.638Z,53.31
2018-10-11T15:09:09.993Z,53.67
2018-10-11T15:11:36.471Z,53.45
2018-10-11T15:14:02.648Z,53.61
2018-10-11T15:16:28.987Z,53.59
2018-10-11T15:18:55.289Z,53.89
2018-10-11T15:21:21.657Z,53.85
2018-10-11T15:23:48.016Z,54.17
2018-10-11T15:26:14.320Z,53.65
2018-10-11T15:28:40.736Z,53.94
2018-10-11T15:31:07.059Z,54.38
2018-10-11T15:33:33.407Z,54.22
2018-10-11T15:35:59.742Z,54.25
2018-10-11T15:38:26.570Z,54.37
2018-10-11T15:40:52.898Z,54.40
2018-10-11T15:43:19.235Z,54.71
2018-10-11T15:45:45.870Z,54.79
2018-10-11T15:48:12.183Z,55.01
2018-10-11T15:50:38.511Z,55.04
2018-10-11T15:53:05.059Z,55.16
2018-10-11T15:55:31.385Z,55.19
2018-10-11T15:57:57.726Z,55.27
2018-10-11T16:00:24.068Z,55.11
2018-10-11T16:02:50.378Z,55.24
2018-10-11T16:05:16.791Z,55.25
2018-10-11T16:07:43.120Z,55.57
2018-10-11T16:10:09.429Z,55.75
2018-10-11T16:12:35.801Z,55.94
2018-10-11T16:15:02.139Z,55.89
2018-10-11T16:17:28.465Z,55.96
2018-10-11T16:19:54.784Z,55.91
2018-10-11T16:22:21.119Z,56.14
2018-10-11T16:24:47.495Z,56.13
2018-10-11T16:27:13.795Z,56.33
2018-10-11T16:29:40.118Z,56.19
2018-10-11T16:32:06.545Z,56.41
2018-10-11T16:34:32.778Z,56.24
2018-10-11T16:36:59.114Z,56.37
2018-10-11T16:39:25.453Z,56.14
2018-10-11T16:41:51.761Z,56.18
2018-10-11T16:44:18.113Z,56.29
2018-10-11T16:46:44.447Z,57.04
2018-10-11T16:49:10.753Z,56.77
2018-10-11T16:51:37.118Z,56.82
2018-10-11T16:54:03.443Z,56.60
2018-10-11T16:56:29.752Z,56.53
2018-10-11T16:58:56.394Z,56.73
2018-10-11T17:01:22.855Z,56.86
2018-10-11T17:03:49.209Z,56.91
2018-10-11T17:06:24.498Z,57.08
2018-10-11T17:08:56.305Z,57.03
2018-10-11T17:11:20.806Z,57.04
2018-10-11T17:13:48.838Z,57.13
2018-10-11T17:16:15.173Z,57.22
2018-10-11T17:18:41.544Z,57.47
2018-10-11T17:21:07.877Z,57.52
2018-10-11T17:23:34.201Z,57.64
2018-10-11T17:26:00.520Z,57.82
2018-10-11T17:28:26.862Z,58.06
2018-10-11T17:30:53.226Z,58.06
2018-10-11T17:33:22.214Z,58.40
2018-10-11T17:35:46.471Z,58.44
2018-10-11T17:38:12.791Z,58.51
2018-10-11T17:40:39.127Z,58.49
2018-10-11T17:43:05.519Z,58.53
2018-10-11T17:45:31.848Z,58.62
2018-10-11T17:47:58.174Z,59.06
2018-10-11T17:50:24.530Z,58.94
2018-10-11T17:52:50.826Z,59.06
2018-10-11T17:55:17.366Z,59.18
2018-10-11T17:57:43.680Z,59.25
2018-10-11T18:00:10.006Z,59.22
2018-10-11T18:02:36.391Z,59.40
2018-10-11T18:05:02.715Z,59.51
2018-10-11T18:07:29.143Z,59.65
2018-10-11T18:09:55.508Z,59.86
2018-10-11T18:12:21.762Z,59.96
2018-10-11T18:14:48.098Z,59.97
2018-10-11T18:17:14.413Z,59.99
2018-10-11T18:19:40.775Z,60.01
2018-10-11T18:22:07.114Z,60.15
2018-10-11T18:24:33.411Z,60.25
2018-10-11T18:26:59.759Z,60.22
2018-10-11T18:29:26.063Z,60.86
2018-10-11T18:31:52.371Z,61.91
2018-10-11T18:34:18.676Z,61.96
2018-10-11T18:36:44.981Z,61.81
2018-10-11T18:39:11.346Z,61.61
2018-10-11T18:41:37.654Z,61.51
2018-10-11T18:44:03.961Z,61.67
2018-10-11T18:46:30.305Z,61.58
2018-10-11T18:48:56.668Z,61.48
2018-10-11T18:51:22.936Z,61.50
2018-10-11T18:53:49.275Z,61.49
2018-10-11T18:56:15.611Z,61.46
2018-10-11T18:58:41.941Z,61.39
2018-10-11T19:01:08.291Z,61.64
2018-10-11T19:03:34.622Z,61.77
2018-10-11T19:06:00.958Z,61.65
2018-10-11T19:08:27.316Z,61.66
2018-10-11T19:10:53.631Z,61.70
2018-10-11T19:13:19.953Z,61.88
2018-10-11T19:15:46.450Z,61.79
2018-10-11T19:18:12.759Z,61.74
2018-10-11T19:20:39.122Z,61.88
2018-10-11T19:23:05.379Z,61.85
2018-10-11T19:25:31.686Z,61.94
2018-10-11T19:27:58.027Z,62.06
2018-10-11T19:30:24.352Z,63.72
2018-10-11T19:32:51.014Z,64.25
2018-10-11T19:35:17.353Z,63.97
2018-10-11T19:37:43.683Z,63.78
2018-10-11T19:40:10.005Z,63.83
2018-10-11T19:42:36.365Z,63.69
2018-10-11T19:45:02.700Z,63.75
2018-10-11T19:47:29.062Z,63.90
2018-10-11T19:49:55.411Z,63.88
2018-10-11T19:52:21.713Z,63.75
2018-10-11T19:54:48.029Z,63.83
2018-10-11T19:57:14.361Z,63.58
2018-10-11T19:59:40.696Z,63.70
2018-10-11T20:02:07.024Z,63.65
2018-10-11T20:04:33.329Z,63.86
2018-10-11T20:06:59.645Z,64.19
2018-10-11T20:09:25.991Z,64.12
2018-10-11T20:11:52.341Z,64.22
2018-10-11T20:14:18.653Z,64.37
2018-10-11T20:16:44.976Z,64.42
2018-10-11T20:19:11.682Z,64.68
2018-10-11T20:21:38.002Z,64.83
2018-10-11T20:24:04.344Z,64.94
2018-10-11T20:26:30.671Z,64.93
2018-10-11T20:28:57.003Z,64.83
2018-10-11T20:31:23.364Z,64.89
2018-10-11T20:33:49.695Z,65.10
2018-10-11T20:36:16.025Z,65.01
2018-10-11T20:38:42.340Z,65.15
2018-10-11T20:41:08.672Z,65.10
2018-10-11T20:43:35.092Z,64.98
2018-10-11T20:46:01.386Z,65.08
2018-10-11T20:48:27.718Z,65.48
2018-10-11T20:50:54.037Z,65.16
2018-10-11T20:53:20.352Z,65.30
2018-10-11T20:55:46.725Z,65.30
2018-10-11T20:58:13.060Z,65.52
2018-10-11T21:00:39.380Z,65.60
2018-10-11T21:03:05.694Z,65.58
2018-10-11T21:05:32.018Z,65.48
2018-10-11T21:07:58.376Z,65.50
2018-10-11T21:10:24.688Z,65.34
2018-10-11T21:12:51.030Z,65.42
2018-10-11T21:15:17.362Z,65.61
2018-10-11T21:17:45.379Z,65.61
2018-10-11T21:20:10.154Z,65.73
2018-10-11T21:22:36.391Z,65.84
2018-10-11T21:25:02.693Z,65.83
2018-10-11T21:27:29.018Z,65.82
2018-10-11T21:29:55.344Z,65.87
2018-10-11T21:32:21.705Z,65.93
2018-10-11T21:34:48.043Z,65.91
2018-10-11T21:37:14.350Z,65.90
2018-10-11T21:39:40.653Z,66.26
2018-10-11T21:42:06.964Z,66.11
2018-10-11T21:44:33.325Z,66.10
2018-10-11T21:46:59.658Z,66.10
2018-10-11T21:49:25.993Z,66.10
2018-10-11T21:51:52.324Z,66.06
2018-10-11T21:54:18.643Z,66.24
2018-10-11T21:56:44.973Z,66.27
2018-10-11T21:59:11.317Z,66.45
2018-10-11T22:01:37.626Z,66.55
2018-10-11T22:04:04.000Z,66.60
2018-10-11T22:06:30.314Z,66.71
2018-10-11T22:08:56.706Z,66.41
2018-10-11T22:11:23.017Z,66.60
2018-10-11T22:13:49.323Z,66.59
2018-10-11T22:16:15.663Z,66.62
2018-10-11T22:18:41.971Z,66.85
2018-10-11T22:21:08.268Z,66.67
2018-10-11T22:23:34.630Z,66.77
2018-10-11T22:26:00.967Z,66.95
2018-10-11T22:28:27.283Z,67.32
2018-10-11T22:30:53.637Z,67.27
2018-10-11T22:33:19.959Z,67.32
2018-10-11T22:35:46.265Z,67.34
2018-10-11T22:38:12.563Z,67.34
2018-10-11T22:40:38.892Z,67.28
2018-10-11T22:43:05.217Z,67.29
2018-10-11T22:45:31.520Z,67.38
2018-10-11T22:47:57.845Z,67.61
2018-10-11T22:50:24.233Z,67.57
2018-10-11T22:52:50.570Z,67.55
2018-10-11T22:55:16.873Z,67.84
2018-10-11T22:57:43.179Z,67.88
2018-10-11T23:00:09.482Z,68.32
2018-10-11T23:02:35.837Z,68.55
2018-10-11T23:05:02.151Z,68.51
2018-10-11T23:07:28.460Z,68.77
2018-10-11T23:09:54.837Z,68.81
2018-10-11T23:12:21.138Z,68.86
2018-10-11T23:14:47.519Z,68.79
2018-10-11T23:17:13.756Z,68.92
2018-10-11T23:19:40.091Z,68.99
2018-10-11T23:22:06.449Z,69.20
2018-10-11T23:24:32.786Z,68.89
2018-10-11T23:26:59.090Z,69.18
2018-10-11T23:29:25.415Z,69.15
2018-10-11T23:31:51.711Z,69.05
2018-10-11T23:34:18.046Z,69.23
2018-10-11T23:36:44.381Z,69.41
2018-10-11T23:39:10.703Z,69.18
2018-10-11T23:41:37.425Z,69.24
2018-10-11T23:44:03.752Z,69.40
2018-10-11T23:46:30.064Z,69.68
2018-10-11T23:48:56.397Z,69.53
2018-10-11T23:51:22.727Z,69.71
2018-10-11T23:53:49.084Z,69.72
2018-10-11T23:56:15.387Z,70.00
2018-10-11T23:58:41.715Z,70.21
